createdAt,value
2022-09-15T00:01:52.183Z,100437.22
2022-09-15T00:04:20.002Z,100440.72
2022-09-15T00:06:51.272Z,100446.78
2022-09-15T00:12:16.403Z,100454.53
2022-09-15T00:14:47.612Z,100452.00
2022-09-15T00:17:20.241Z,100453.72
2022-09-15T00:19:54.015Z,100445.06
2022-09-15T00:22:21.119Z,100445.31
2022-09-15T00:24:50.235Z,100443.44
2022-09-15T00:27:18.621Z,100445.25
2022-09-15T00:29:45.630Z,100443.50
2022-09-15T00:32:15.245Z,100442.69
2022-09-15T00:34:43.600Z,100437.72
2022-09-15T00:37:11.935Z,100437.72
2022-09-15T00:39:43.105Z,100439.56
2022-09-15T00:42:35.340Z,100435.34
2022-09-15T00:45:10.108Z,100440.53
2022-09-15T00:47:51.603Z,100438.88
2022-09-15T00:50:24.662Z,100445.09
2022-09-15T00:53:22.280Z,100434.81
2022-09-15T00:56:02.846Z,100441.81
2022-09-15T00:58:50.284Z,100436.91
2022-09-15T01:01:20.041Z,100442.88
2022-09-15T01:03:47.116Z,100446.44
2022-09-15T01:06:52.708Z,100425.75
2022-09-15T01:09:30.887Z,100419.75
2022-09-15T01:12:38.113Z,100424.16
2022-09-15T01:15:10.397Z,100432.03
2022-09-15T01:18:08.485Z,100433.00
2022-09-15T01:20:41.845Z,100431.38
2022-09-15T01:23:12.648Z,100434.06
2022-09-15T01:26:30.038Z,100439.38
2022-09-15T01:29:51.612Z,100435.19
2022-09-15T01:33:05.737Z,100438.78
2022-09-15T01:35:40.968Z,100434.59
2022-09-15T01:38:41.816Z,100436.41
2022-09-15T01:41:32.507Z,100427.88
2022-09-15T01:44:17.220Z,100428.81
2022-09-15T01:47:02.651Z,100428.88
2022-09-15T01:49:41.243Z,100424.66
2022-09-15T01:52:27.389Z,100432.56
2022-09-15T01:55:00.867Z,100430.09
2022-09-15T01:57:29.624Z,100425.00
2022-09-15T01:59:59.355Z,100430.22
2022-09-15T02:02:52.112Z,100434.69
2022-09-15T02:05:34.346Z,100434.78
2022-09-15T02:08:27.250Z,100434.91
2022-09-15T02:11:31.606Z,100428.25
2022-09-15T02:14:33.377Z,100430.84
2022-09-15T02:17:03.835Z,100433.53
2022-09-15T02:19:55.054Z,100431.25
2022-09-15T02:22:55.405Z,100436.34
2022-09-15T02:25:30.781Z,100442.50
2022-09-15T02:28:43.356Z,100441.72
2022-09-15T02:31:49.003Z,100443.53
2022-09-15T02:34:45.057Z,100443.66
2022-09-15T02:37:19.646Z,100435.06
2022-09-15T02:40:05.756Z,100441.22
2022-09-15T02:42:34.627Z,100440.47
2022-09-15T02:45:05.172Z,100443.09
2022-09-15T02:47:32.197Z,100432.97
2022-09-15T02:49:59.208Z,100441.50
2022-09-15T02:52:28.052Z,100441.56
2022-09-15T02:54:54.931Z,100444.28
2022-09-15T02:57:27.282Z,100444.38
2022-09-15T03:00:14.601Z,100441.78
2022-09-15T03:02:57.368Z,100436.66
2022-09-15T03:05:33.725Z,100430.59
2022-09-15T03:08:01.011Z,100424.66
2022-09-15T03:10:30.432Z,100423.78
2022-09-15T03:13:01.380Z,100429.84
2022-09-15T03:15:28.472Z,100451.53
2022-09-15T03:17:58.020Z,100447.25
2022-09-15T03:20:31.119Z,100450.69
2022-09-15T03:23:14.413Z,100456.72
2022-09-15T03:25:41.322Z,100445.50
2022-09-15T03:28:10.884Z,100453.22
2022-09-15T03:30:43.826Z,100460.16
2022-09-15T03:36:01.185Z,100457.56
2022-09-15T03:38:34.596Z,100459.25
2022-09-15T03:41:23.818Z,100463.63
2022-09-15T03:43:51.639Z,100460.13
2022-09-15T03:46:19.387Z,100454.03
2022-09-15T03:48:52.639Z,100458.31
2022-09-15T03:51:19.563Z,100467.78
2022-09-15T03:53:51.031Z,100454.84
2022-09-15T03:56:36.102Z,100443.78
2022-09-15T03:59:05.798Z,100457.38
2022-09-15T04:01:40.245Z,100453.00
2022-09-15T04:04:12.857Z,100455.53
2022-09-15T04:06:44.255Z,100453.78
2022-09-15T04:09:15.931Z,100453.69
2022-09-15T04:11:48.861Z,100455.41
2022-09-15T04:14:16.414Z,100454.50
2022-09-15T04:16:50.851Z,100451.00
2022-09-15T04:19:18.992Z,100432.97
2022-09-15T04:21:52.549Z,100450.03
2022-09-15T04:24:19.637Z,100456.97
2022-09-15T04:26:54.144Z,100451.75
2022-09-15T04:29:23.120Z,100456.00
2022-09-15T04:31:50.496Z,100454.19
2022-09-15T04:34:17.598Z,100448.09
2022-09-15T04:36:44.691Z,100456.69
2022-09-15T04:39:11.564Z,100454.91
2022-09-15T04:41:38.504Z,100447.22
2022-09-15T04:44:05.467Z,100442.81
2022-09-15T04:46:32.705Z,100447.13
2022-09-15T04:48:59.724Z,100442.69
2022-09-15T04:51:27.346Z,100441.84
2022-09-15T04:53:54.246Z,100449.50
2022-09-15T04:56:25.761Z,100455.50
2022-09-15T04:59:03.618Z,100457.25
2022-09-15T05:01:34.376Z,100456.34
2022-09-15T05:04:04.122Z,100460.59
2022-09-15T05:06:31.810Z,100457.16
2022-09-15T05:08:58.778Z,100452.91
2022-09-15T05:11:26.629Z,100465.78
2022-09-15T05:13:54.111Z,100464.03
2022-09-15T05:16:24.339Z,100470.94
2022-09-15T05:18:53.850Z,100476.09
2022-09-15T05:21:22.738Z,100477.81
2022-09-15T05:23:52.001Z,100476.03
2022-09-15T05:26:22.118Z,100478.59
2022-09-15T05:28:48.966Z,100473.34
2022-09-15T05:31:21.436Z,100482.81
2022-09-15T05:33:50.289Z,100478.47
2022-09-15T05:36:18.575Z,100479.22
2022-09-15T05:38:45.567Z,100476.78
2022-09-15T05:41:17.748Z,100486.19
2022-09-15T05:43:49.014Z,100482.75
2022-09-15T05:46:17.588Z,100480.03
2022-09-15T05:48:45.818Z,100482.59
2022-09-15T05:51:13.503Z,100483.38
2022-09-15T05:53:40.939Z,100487.72
2022-09-15T05:56:11.940Z,100485.03
2022-09-15T05:58:41.104Z,100480.63
2022-09-15T06:01:11.933Z,100486.69
2022-09-15T06:03:39.319Z,100479.72
2022-09-15T06:06:06.682Z,100496.88
2022-09-15T06:08:41.467Z,100502.88
2022-09-15T06:11:18.515Z,100497.63
2022-09-15T06:13:46.550Z,100501.88
2022-09-15T06:16:15.534Z,100505.28
2022-09-15T06:18:42.968Z,100500.84
2022-09-15T06:21:12.690Z,100506.06
2022-09-15T06:23:40.135Z,100500.75
2022-09-15T06:26:12.565Z,100504.13
2022-09-15T06:28:40.901Z,100508.38
2022-09-15T06:31:12.623Z,100503.16
2022-09-15T06:33:48.174Z,100505.75
2022-09-15T06:36:16.287Z,100494.34
2022-09-15T06:38:44.126Z,100505.56
2022-09-15T06:41:11.895Z,100508.97
2022-09-15T06:43:39.455Z,100513.22
2022-09-15T06:46:18.353Z,100502.88
2022-09-15T06:48:48.310Z,100514.75
2022-09-15T06:51:17.310Z,100514.72
2022-09-15T06:53:44.674Z,100511.16
2022-09-15T06:56:18.256Z,100522.34
2022-09-15T06:58:48.865Z,100512.75
2022-09-15T07:01:32.148Z,100516.16
2022-09-15T07:04:01.024Z,100518.69
2022-09-15T07:06:30.195Z,100523.00
2022-09-15T07:09:01.770Z,100516.94
2022-09-15T07:11:29.337Z,100529.81
2022-09-15T07:13:56.142Z,100538.44
2022-09-15T07:16:25.577Z,100537.53
2022-09-15T07:18:55.865Z,100540.03
2022-09-15T07:21:23.909Z,100536.47
2022-09-15T07:23:50.724Z,100539.06
2022-09-15T07:26:20.143Z,100554.56
2022-09-15T07:28:50.942Z,100561.38
2022-09-15T07:31:20.896Z,100548.34
2022-09-15T07:33:48.094Z,100546.66
2022-09-15T07:36:15.447Z,100559.56
2022-09-15T07:38:47.980Z,100561.16
2022-09-15T07:41:22.242Z,100568.91
2022-09-15T07:43:51.265Z,100570.59
2022-09-15T07:46:19.452Z,100577.44
2022-09-15T07:48:51.944Z,100579.03
2022-09-15T07:51:19.749Z,100574.66
2022-09-15T07:53:47.985Z,100578.06
2022-09-15T07:56:17.942Z,100587.41
2022-09-15T07:58:46.130Z,100576.88
2022-09-15T08:01:16.912Z,100567.34
2022-09-15T08:03:49.106Z,100574.16
2022-09-15T08:06:21.732Z,100580.09
2022-09-15T08:08:50.244Z,100588.56
2022-09-15T08:11:19.422Z,100580.59
2022-09-15T08:13:48.485Z,100594.31
2022-09-15T08:16:18.506Z,100593.31
2022-09-15T08:18:45.849Z,100594.19
2022-09-15T08:21:16.371Z,100599.16
2022-09-15T08:23:43.866Z,100597.28
2022-09-15T08:26:14.412Z,100604.97
2022-09-15T08:28:42.492Z,100608.28
2022-09-15T08:31:11.728Z,100609.00
2022-09-15T08:33:43.153Z,100610.59
2022-09-15T08:36:13.326Z,100620.88
2022-09-15T08:38:41.211Z,100617.28
2022-09-15T08:41:12.691Z,100623.22
2022-09-15T08:43:48.017Z,100631.78
2022-09-15T08:46:20.179Z,100621.22
2022-09-15T08:49:30.792Z,100632.31
2022-09-15T08:52:19.375Z,100627.84
2022-09-15T08:54:46.502Z,100633.72
2022-09-15T08:57:20.016Z,100641.50
2022-09-15T08:59:47.016Z,100635.19
2022-09-15T09:02:13.875Z,100635.06
2022-09-15T09:04:57.458Z,100644.41
2022-09-15T09:08:01.543Z,100642.47
2022-09-15T09:10:51.763Z,100636.16
2022-09-15T09:13:42.288Z,100638.59
2022-09-15T09:16:44.381Z,100638.44
2022-09-15T09:19:17.067Z,100631.28
2022-09-15T09:21:51.550Z,100632.84
2022-09-15T09:24:33.039Z,100625.06
2022-09-15T09:27:02.180Z,100630.84
2022-09-15T09:29:39.291Z,100636.78
2022-09-15T09:32:21.916Z,100642.78
2022-09-15T09:35:20.159Z,100631.38
2022-09-15T09:37:47.636Z,100638.16
2022-09-15T09:40:15.740Z,100636.38
2022-09-15T09:42:43.590Z,100638.06
2022-09-15T09:45:19.161Z,100642.16
2022-09-15T09:47:48.802Z,100644.63
2022-09-15T09:50:36.087Z,100649.59
2022-09-15T09:53:38.581Z,100651.16
2022-09-15T09:56:18.511Z,100648.41
2022-09-15T09:58:45.796Z,100650.97
2022-09-15T10:01:15.482Z,100643.84
2022-09-15T10:03:43.930Z,100637.63
2022-09-15T10:06:18.873Z,100638.28
2022-09-15T10:09:03.675Z,100646.84
2022-09-15T10:11:47.989Z,100638.88
2022-09-15T10:14:40.172Z,100643.06
2022-09-15T10:17:13.129Z,100644.69
2022-09-15T10:19:42.789Z,100633.19
2022-09-15T10:22:34.810Z,100633.00
2022-09-15T10:25:04.544Z,100626.91
2022-09-15T10:27:33.992Z,100624.16
2022-09-15T10:30:12.942Z,100630.00
2022-09-15T10:32:40.888Z,100622.16
2022-09-15T10:35:18.843Z,100627.94
2022-09-15T10:37:45.704Z,100628.81
2022-09-15T10:40:28.236Z,100641.75
2022-09-15T10:43:17.072Z,100632.06
2022-09-15T10:45:48.975Z,100629.41
2022-09-15T10:49:00.788Z,100621.41
2022-09-15T10:51:55.420Z,100609.09
2022-09-15T10:54:41.583Z,100603.75
2022-09-15T10:57:33.455Z,100608.81
2022-09-15T11:00:03.295Z,100611.38
2022-09-15T11:02:59.990Z,100625.03
2022-09-15T11:06:03.830Z,100627.41
2022-09-15T11:08:51.496Z,100632.50
2022-09-15T11:11:24.117Z,100634.13
2022-09-15T11:14:00.010Z,100638.31
2022-09-15T11:16:57.789Z,100641.69
2022-09-15T11:19:30.832Z,100637.16
2022-09-15T11:22:05.270Z,100637.09
2022-09-15T11:24:48.079Z,100637.81
2022-09-15T11:27:34.542Z,100635.13
2022-09-15T11:30:21.404Z,100635.03
2022-09-15T11:32:55.611Z,100637.75
2022-09-15T11:35:29.935Z,100637.66
2022-09-15T11:38:13.232Z,100635.88
2022-09-15T11:40:51.992Z,100633.22
2022-09-15T11:43:29.867Z,100633.97
2022-09-15T11:45:59.553Z,100635.69
2022-09-15T11:48:48.358Z,100639.16
2022-09-15T11:51:16.869Z,100640.00
2022-09-15T11:53:57.167Z,100639.06
2022-09-15T11:56:35.045Z,100640.81
2022-09-15T11:59:10.039Z,100636.38
2022-09-15T12:01:46.112Z,100639.84
2022-09-15T12:04:20.482Z,100640.78
2022-09-15T12:09:33.380Z,100645.22
2022-09-15T12:12:08.909Z,100652.13
2022-09-15T12:14:41.270Z,100649.59
2022-09-15T12:17:15.659Z,100651.28
2022-09-15T12:20:21.624Z,100647.00
2022-09-15T12:23:04.891Z,100659.28
2022-09-15T12:26:14.665Z,100663.75
2022-09-15T12:28:50.835Z,100655.97
2022-09-15T12:31:23.877Z,100671.75
2022-09-15T12:33:55.085Z,100658.81
2022-09-15T12:36:55.518Z,100669.41
2022-09-15T12:39:24.161Z,100680.84
2022-09-15T12:42:05.178Z,100684.38
2022-09-15T12:44:44.615Z,100684.50
2022-09-15T12:47:18.548Z,100683.75
2022-09-15T12:49:48.503Z,100687.34
2022-09-15T12:52:17.069Z,100694.41
2022-09-15T12:54:50.005Z,100686.00
2022-09-15T12:57:34.402Z,100696.53
2022-09-15T13:01:17.052Z,100698.50
2022-09-15T13:03:41.731Z,100686.53
2022-09-15T13:06:28.997Z,100693.69
2022-09-15T13:09:01.967Z,100695.44
2022-09-15T13:11:37.408Z,100689.38
2022-09-15T13:14:06.858Z,100677.34
2022-09-15T13:16:40.310Z,100693.72
2022-09-15T13:19:13.790Z,100690.22
2022-09-15T13:21:45.919Z,100690.22
2022-09-15T13:24:20.313Z,100677.16
2022-09-15T13:26:52.930Z,100683.13
2022-09-15T13:29:23.044Z,100677.84
2022-09-15T13:31:58.382Z,100676.03
2022-09-15T13:41:03.951Z,100672.41
2022-09-15T13:43:37.375Z,100673.34
2022-09-15T13:46:36.364Z,100667.31
2022-09-15T13:49:12.679Z,100658.63
2022-09-15T13:51:44.627Z,100662.09
2022-09-15T13:54:18.871Z,100656.09
2022-09-15T13:56:47.450Z,100657.78
2022-09-15T13:59:28.148Z,100656.84
2022-09-15T14:01:56.923Z,100657.78
2022-09-15T14:04:27.981Z,100650.78
2022-09-15T14:07:00.239Z,100655.13
2022-09-15T14:09:33.295Z,100655.03
2022-09-15T14:12:09.625Z,100659.34
2022-09-15T14:14:44.167Z,100650.72
2022-09-15T14:17:21.454Z,100654.97
2022-09-15T14:20:01.469Z,100656.59
2022-09-15T14:22:31.159Z,100656.66
2022-09-15T14:24:59.633Z,100655.81
2022-09-15T14:27:29.646Z,100656.59
2022-09-15T14:30:01.187Z,100657.38
2022-09-15T14:32:29.583Z,100656.44
2022-09-15T14:35:00.472Z,100651.22
2022-09-15T14:37:29.061Z,100647.75
2022-09-15T14:39:58.317Z,100653.00
2022-09-15T14:42:32.566Z,100650.38
2022-09-15T14:48:15.608Z,100656.38
2022-09-15T14:50:45.204Z,100652.78
2022-09-15T14:53:22.261Z,100659.72
2022-09-15T14:55:57.988Z,100656.25
2022-09-15T14:58:49.772Z,100653.63
2022-09-15T15:01:19.610Z,100653.63
2022-09-15T15:04:09.893Z,100651.81
2022-09-15T15:06:45.550Z,100651.81
2022-09-15T15:09:23.830Z,100657.03
2022-09-15T15:11:55.227Z,100653.56
2022-09-15T15:17:24.836Z,100655.28
2022-09-15T15:19:58.654Z,100656.97
2022-09-15T15:22:26.868Z,100653.56
2022-09-15T15:24:54.888Z,100649.97
2022-09-15T15:27:33.919Z,100649.91
2022-09-15T15:30:31.464Z,100647.19
2022-09-15T15:33:09.319Z,100652.44
2022-09-15T15:35:36.338Z,100645.66
2022-09-15T15:38:25.319Z,100660.38
2022-09-15T15:41:04.463Z,100653.41
2022-09-15T15:43:31.945Z,100656.97
2022-09-15T15:46:01.417Z,100660.38
2022-09-15T15:48:37.838Z,100658.59
2022-09-15T15:51:06.820Z,100657.66
2022-09-15T15:53:34.437Z,100660.28
2022-09-15T15:56:01.946Z,100659.38
2022-09-15T15:58:28.812Z,100660.38
2022-09-15T16:00:58.620Z,100660.28
2022-09-15T16:03:25.785Z,100665.44
2022-09-15T16:05:57.072Z,100665.38
2022-09-15T16:08:38.229Z,100660.13
2022-09-15T16:11:07.852Z,100658.38
2022-09-15T16:13:35.180Z,100663.53
2022-09-15T16:16:02.594Z,100658.31
2022-09-15T16:18:29.548Z,100656.69
2022-09-15T16:20:56.483Z,100655.75
2022-09-15T16:23:23.767Z,100648.78
2022-09-15T16:25:59.549Z,100650.47
2022-09-15T16:28:26.519Z,100647.00
2022-09-15T16:30:53.357Z,100648.69
2022-09-15T16:33:20.724Z,100651.31
2022-09-15T16:35:51.427Z,100655.69
2022-09-15T16:38:20.261Z,100644.59
2022-09-15T16:40:48.537Z,100651.31
2022-09-15T16:43:17.391Z,100660.84
2022-09-15T16:45:45.218Z,100657.53
2022-09-15T16:48:12.474Z,100666.16
2022-09-15T16:50:50.057Z,100661.91
2022-09-15T16:53:23.414Z,100675.91
2022-09-15T16:55:52.271Z,100684.59
2022-09-15T16:58:20.529Z,100673.28
2022-09-15T17:00:49.149Z,100673.34
2022-09-15T17:03:18.910Z,100672.66
2022-09-15T17:05:49.711Z,100686.66
2022-09-15T17:08:18.936Z,100682.41
2022-09-15T17:10:46.768Z,100685.06
2022-09-15T17:13:19.913Z,100683.38
2022-09-15T17:15:47.421Z,100686.97
2022-09-15T17:18:15.601Z,100685.28
2022-09-15T17:20:44.555Z,100687.09
2022-09-15T17:23:31.191Z,100700.25
2022-09-15T17:26:01.311Z,100693.41
2022-09-15T17:28:36.469Z,100687.38
2022-09-15T17:31:15.701Z,100694.47
2022-09-15T17:33:43.509Z,100698.06
2022-09-15T17:36:10.680Z,100702.50
2022-09-15T17:38:37.960Z,100695.63
2022-09-15T17:41:05.007Z,100692.31
2022-09-15T17:43:32.043Z,100700.28
2022-09-15T17:45:59.129Z,100697.81
2022-09-15T17:48:26.413Z,100697.03
2022-09-15T17:50:53.494Z,100703.09
2022-09-15T17:53:28.424Z,100704.00
2022-09-15T17:55:55.918Z,100704.09
2022-09-15T17:58:26.308Z,100703.28
2022-09-15T18:00:53.954Z,100704.22
2022-09-15T18:03:35.589Z,100703.41
2022-09-15T18:06:06.393Z,100702.66
2022-09-15T18:08:33.969Z,100700.09
2022-09-15T18:11:01.039Z,100695.94
2022-09-15T18:13:29.926Z,100702.00
2022-09-15T18:15:58.000Z,100701.31
2022-09-15T18:18:27.084Z,100702.28
2022-09-15T18:20:56.769Z,100709.34
2022-09-15T18:23:25.809Z,100711.16
2022-09-15T18:25:52.827Z,100718.16
2022-09-15T18:28:20.250Z,100727.81
2022-09-15T18:30:49.393Z,100726.13
2022-09-15T18:33:25.894Z,100720.19
2022-09-15T18:35:59.028Z,100718.47
2022-09-15T18:38:26.463Z,100714.25
2022-09-15T18:40:56.057Z,100723.81
2022-09-15T18:43:25.582Z,100722.97
2022-09-15T18:45:57.365Z,100726.50
2022-09-15T18:48:24.312Z,100729.19
2022-09-15T18:50:51.333Z,100729.25
2022-09-15T18:53:18.253Z,100724.22
2022-09-15T18:55:45.126Z,100727.69
2022-09-15T18:58:12.044Z,100733.03
2022-09-15T19:00:39.070Z,100741.69
2022-09-15T19:03:09.381Z,100737.44
2022-09-15T19:05:36.453Z,100741.09
2022-09-15T19:08:04.296Z,100747.88
2022-09-15T19:10:31.229Z,100753.25
2022-09-15T19:12:58.145Z,100748.25
2022-09-15T19:15:25.070Z,100753.38
2022-09-15T19:17:51.922Z,100757.00
2022-09-15T19:20:19.013Z,100752.75
2022-09-15T19:22:46.401Z,100761.38
2022-09-15T19:25:13.857Z,100754.53
2022-09-15T19:27:41.305Z,100763.25
2022-09-15T19:30:10.212Z,100762.41
2022-09-15T19:32:38.908Z,100766.78
2022-09-15T19:35:07.846Z,100759.91
2022-09-15T19:37:40.429Z,100769.50
2022-09-15T19:40:10.008Z,100769.63
2022-09-15T19:42:41.730Z,100774.03
2022-09-15T19:45:10.493Z,100779.34
2022-09-15T19:47:37.759Z,100770.72
2022-09-15T19:50:06.867Z,100771.69
2022-09-15T19:52:34.004Z,100773.50
2022-09-15T19:55:00.845Z,100774.47
2022-09-15T19:57:28.207Z,100771.03
2022-09-15T19:59:55.035Z,100765.13
2022-09-15T20:02:22.185Z,100774.63
2022-09-15T20:04:50.441Z,100778.25
2022-09-15T20:07:19.801Z,100783.56
2022-09-15T20:09:47.471Z,100781.09
2022-09-15T20:12:14.680Z,100786.34
2022-09-15T20:14:41.598Z,100788.97
2022-09-15T20:17:08.594Z,100781.25
2022-09-15T20:19:36.950Z,100792.53
2022-09-15T20:22:04.521Z,100790.00
2022-09-15T20:24:31.425Z,100788.31
2022-09-15T20:26:59.286Z,100792.78
2022-09-15T20:29:26.357Z,100798.94
2022-09-15T20:32:03.957Z,100790.44
2022-09-15T20:34:31.705Z,100790.63
2022-09-15T20:37:00.734Z,100812.19
2022-09-15T20:39:27.686Z,100802.94
2022-09-15T20:41:54.695Z,100813.31
2022-09-15T20:44:24.388Z,100812.47
2022-09-15T20:46:51.222Z,100818.63
2022-09-15T20:49:18.211Z,100822.19
2022-09-15T20:51:45.295Z,100819.69
2022-09-15T20:54:12.446Z,100812.91
2022-09-15T20:56:43.760Z,100818.13
2022-09-15T20:59:13.875Z,100812.28
2022-09-15T21:01:48.250Z,100817.50
2022-09-15T21:04:15.276Z,100810.72
2022-09-15T21:06:42.228Z,100823.66
2022-09-15T21:09:11.221Z,100822.88
2022-09-15T21:11:53.724Z,100823.84
2022-09-15T21:14:20.830Z,100804.97
2022-09-15T21:16:48.959Z,100818.03
2022-09-15T21:19:16.190Z,100812.81
2022-09-15T21:21:51.404Z,100822.41
2022-09-15T21:24:18.415Z,100834.63
2022-09-15T21:27:03.913Z,100823.41
2022-09-15T21:29:31.604Z,100826.03
2022-09-15T21:32:00.105Z,100826.97
2022-09-15T21:34:28.188Z,100832.38
2022-09-15T21:36:57.313Z,100827.19
2022-09-15T21:39:24.429Z,100836.59
2022-09-15T21:41:51.434Z,100836.66
2022-09-15T21:44:18.690Z,100836.75
2022-09-15T21:46:56.474Z,100829.81
2022-09-15T21:49:27.774Z,100831.66
2022-09-15T21:51:59.842Z,100840.25
2022-09-15T21:54:30.360Z,100833.38
2022-09-15T21:57:00.435Z,100832.59
2022-09-15T21:59:27.451Z,100826.53
2022-09-15T22:01:59.232Z,100832.59
2022-09-15T22:04:28.493Z,100834.41
2022-09-15T22:06:55.325Z,100844.78
2022-09-15T22:09:22.227Z,100840.44
2022-09-15T22:11:49.419Z,100832.00
2022-09-15T22:14:17.284Z,100839.66
2022-09-15T22:19:27.282Z,100844.09
2022-09-15T22:21:54.093Z,100847.63
2022-09-15T22:24:22.929Z,100854.59
2022-09-15T22:26:50.308Z,100853.84
2022-09-15T22:29:17.372Z,100850.50
2022-09-15T22:31:44.397Z,100848.78
2022-09-15T22:34:14.604Z,100850.53
2022-09-15T22:36:41.527Z,100848.75
2022-09-15T22:39:12.389Z,100856.50
2022-09-15T22:41:42.775Z,100854.84
2022-09-15T22:44:24.461Z,100845.28
2022-09-15T22:46:54.193Z,100839.28
2022-09-15T22:49:23.736Z,100844.47
2022-09-15T22:51:51.545Z,100841.13
2022-09-15T22:54:21.702Z,100836.72
2022-09-15T22:56:48.929Z,100837.66
2022-09-15T22:59:19.027Z,100835.06
2022-09-15T23:01:47.846Z,100835.06
2022-09-15T23:04:16.913Z,100829.09
2022-09-15T23:06:43.835Z,100828.28
2022-09-15T23:09:13.113Z,100825.75
2022-09-15T23:11:43.865Z,100834.53
2022-09-15T23:14:16.006Z,100842.31
2022-09-15T23:16:46.476Z,100838.81
2022-09-15T23:19:21.633Z,100847.44
2022-09-15T23:21:51.915Z,100843.16
2022-09-15T23:24:21.013Z,100837.09
2022-09-15T23:26:53.337Z,100837.97
2022-09-15T23:29:22.760Z,100837.19
2022-09-15T23:31:55.481Z,100842.41
2022-09-15T23:34:22.774Z,100835.47
2022-09-15T23:36:50.875Z,100838.06
2022-09-15T23:39:25.371Z,100842.44
2022-09-15T23:41:57.993Z,100834.69
2022-09-15T23:44:27.956Z,100826.00
2022-09-15T23:46:58.470Z,100822.59
2022-09-15T23:49:27.931Z,100819.19
2022-09-15T23:52:02.263Z,100812.28
2022-09-15T23:54:35.207Z,100806.25
2022-09-15T23:57:09.857Z,100801.97
2022-09-15T23:59:39.776Z,100805.44
